createdAt,value
2022-08-28T00:01:37.554Z,89.67
2022-08-28T00:04:04.169Z,88.62
2022-08-28T00:06:30.759Z,85.87
2022-08-28T00:08:57.275Z,83.22
2022-08-28T00:11:23.846Z,81.53
2022-08-28T00:13:50.591Z,79.04
2022-08-28T00:16:18.731Z,78.59
2022-08-28T00:18:47.211Z,76.77
2022-08-28T00:21:14.776Z,75.57
2022-08-28T00:23:42.739Z,75.80
2022-08-28T00:26:10.186Z,74.88
2022-08-28T00:28:39.055Z,74.67
2022-08-28T00:31:05.715Z,74.17
2022-08-28T00:33:33.862Z,76.94
2022-08-28T00:36:01.103Z,76.90
2022-08-28T00:38:28.426Z,76.32
2022-08-28T00:40:57.376Z,76.62
2022-08-28T00:43:33.788Z,77.01
2022-08-28T00:46:02.068Z,77.48
2022-08-28T00:48:28.589Z,78.89
2022-08-28T00:51:13.706Z,79.10
2022-08-28T00:53:40.202Z,80.76
2022-08-28T00:56:12.906Z,81.83
2022-08-28T00:58:41.615Z,84.06
2022-08-28T01:01:09.347Z,85.15
2022-08-28T01:03:36.603Z,85.21
2022-08-28T01:06:03.233Z,85.25
2022-08-28T01:08:30.439Z,83.55
2022-08-28T01:10:58.817Z,82.73
2022-08-28T01:13:26.473Z,81.30
2022-08-28T01:15:54.034Z,82.04
2022-08-28T01:18:22.344Z,81.98
2022-08-28T01:20:56.857Z,82.14
2022-08-28T01:23:24.501Z,82.57
2022-08-28T01:25:52.526Z,83.41
2022-08-28T01:28:19.290Z,83.50
2022-08-28T01:30:49.369Z,83.46
2022-08-28T01:33:16.319Z,83.48
2022-08-28T01:35:44.652Z,83.65
2022-08-28T01:38:12.125Z,82.52
2022-08-28T01:40:46.692Z,83.15
2022-08-28T01:43:14.466Z,81.14
2022-08-28T01:45:42.521Z,79.90
2022-08-28T01:48:09.486Z,78.79
2022-08-28T01:50:56.192Z,79.95
2022-08-28T01:53:33.106Z,79.41
2022-08-28T01:56:18.679Z,79.23
2022-08-28T01:58:45.405Z,79.49
2022-08-28T02:01:13.292Z,78.95
2022-08-28T02:03:40.483Z,77.74
2022-08-28T02:06:07.055Z,78.76
2022-08-28T02:08:33.542Z,78.51
2022-08-28T02:11:00.358Z,78.94
2022-08-28T02:13:27.182Z,79.44
2022-08-28T02:15:54.256Z,79.99
2022-08-28T02:18:20.899Z,80.43
2022-08-28T02:20:47.673Z,80.26
2022-08-28T02:23:15.694Z,81.03
2022-08-28T02:25:44.391Z,81.05
2022-08-28T02:28:11.388Z,81.83
2022-08-28T02:30:38.760Z,81.54
2022-08-28T02:33:05.352Z,81.50
2022-08-28T02:35:31.904Z,82.51
2022-08-28T02:38:00.578Z,82.64
2022-08-28T02:40:27.685Z,82.86
2022-08-28T02:42:54.298Z,83.62
2022-08-28T02:45:20.897Z,82.71
2022-08-28T02:47:47.830Z,82.34
2022-08-28T02:50:18.975Z,82.89
2022-08-28T02:52:46.534Z,81.91
2022-08-28T02:55:14.287Z,82.33
2022-08-28T02:57:41.308Z,83.23
2022-08-28T03:00:10.749Z,82.72
2022-08-28T03:02:37.389Z,83.03
2022-08-28T03:05:04.330Z,83.20
2022-08-28T03:07:30.899Z,83.15
2022-08-28T03:09:57.467Z,83.20
2022-08-28T03:12:26.808Z,84.02
2022-08-28T03:14:54.750Z,82.92
2022-08-28T03:17:22.197Z,83.15
2022-08-28T03:19:50.154Z,83.82
2022-08-28T03:22:17.468Z,84.24
2022-08-28T03:24:45.099Z,84.64
2022-08-28T03:27:11.833Z,84.54
2022-08-28T03:29:38.389Z,84.45
2022-08-28T03:32:04.961Z,85.04
2022-08-28T03:34:31.545Z,85.10
2022-08-28T03:36:58.286Z,84.87
2022-08-28T03:39:24.827Z,85.68
2022-08-28T03:41:51.608Z,85.99
2022-08-28T03:44:18.140Z,86.20
2022-08-28T03:46:44.622Z,85.72
2022-08-28T03:49:11.438Z,85.57
2022-08-28T03:51:38.446Z,85.33
2022-08-28T03:54:05.438Z,85.83
2022-08-28T03:56:32.294Z,86.03
2022-08-28T03:59:00.568Z,86.40
2022-08-28T04:01:27.314Z,86.31
2022-08-28T04:03:57.405Z,86.39
2022-08-28T04:06:43.994Z,85.68
2022-08-28T04:09:10.578Z,85.88
2022-08-28T04:11:38.209Z,86.01
2022-08-28T04:14:04.676Z,86.69
2022-08-28T04:16:31.570Z,86.74
2022-08-28T04:18:58.561Z,86.64
2022-08-28T04:21:26.172Z,86.02
2022-08-28T04:23:53.639Z,87.19
2022-08-28T04:26:22.405Z,86.83
2022-08-28T04:28:49.429Z,87.52
2022-08-28T04:31:19.204Z,87.38
2022-08-28T04:34:00.631Z,86.65
2022-08-28T04:36:32.613Z,86.78
2022-08-28T04:39:19.335Z,86.26
2022-08-28T04:41:47.033Z,86.23
2022-08-28T04:44:13.546Z,86.36
2022-08-28T04:46:40.392Z,85.75
2022-08-28T04:49:06.943Z,85.25
2022-08-28T04:51:33.755Z,85.31
2022-08-28T04:54:01.797Z,85.58
2022-08-28T04:56:28.313Z,85.60
2022-08-28T04:58:54.883Z,83.03
2022-08-28T05:01:24.417Z,80.13
2022-08-28T05:03:53.581Z,77.78
2022-08-28T05:06:21.753Z,77.38
2022-08-28T05:08:48.352Z,73.48
2022-08-28T05:11:33.617Z,70.88
2022-08-28T05:14:01.934Z,66.79
2022-08-28T05:16:28.511Z,66.68
2022-08-28T05:19:00.494Z,65.37
2022-08-28T05:21:45.398Z,63.16
2022-08-28T05:24:12.895Z,62.22
2022-08-28T05:26:40.254Z,60.82
2022-08-28T05:29:26.814Z,59.43
2022-08-28T05:31:55.374Z,59.03
2022-08-28T05:34:22.132Z,56.05
2022-08-28T05:36:49.420Z,56.30
2022-08-28T05:39:35.980Z,54.21
2022-08-28T05:42:06.817Z,56.72
2022-08-28T05:44:34.354Z,56.18
2022-08-28T05:47:00.899Z,56.68
2022-08-28T05:49:28.257Z,54.30
2022-08-28T05:51:54.812Z,56.59
2022-08-28T05:54:21.430Z,53.78
2022-08-28T05:56:48.180Z,50.29
2022-08-28T05:59:16.843Z,50.03
2022-08-28T06:01:44.963Z,54.09
2022-08-28T06:04:25.444Z,51.88
2022-08-28T06:10:45.924Z,46.63
2022-08-28T06:13:17.310Z,46.04
2022-08-28T06:15:46.741Z,45.21
2022-08-28T06:18:13.778Z,47.20
2022-08-28T06:20:44.897Z,47.89
2022-08-28T06:23:14.043Z,43.43
2022-08-28T06:25:41.583Z,43.63
2022-08-28T06:28:10.581Z,48.90
2022-08-28T06:30:40.126Z,44.66
2022-08-28T06:33:08.868Z,46.56
2022-08-28T06:35:40.747Z,41.99
2022-08-28T06:38:07.791Z,39.78
2022-08-28T06:40:38.690Z,40.33
2022-08-28T06:43:05.184Z,40.74
2022-08-28T06:45:31.832Z,44.37
2022-08-28T06:47:59.122Z,41.60
2022-08-28T06:50:25.641Z,40.89
2022-08-28T06:52:52.144Z,41.20
2022-08-28T06:55:18.596Z,39.24
2022-08-28T06:57:45.053Z,37.31
2022-08-28T07:00:12.004Z,37.12
2022-08-28T07:02:38.514Z,35.55
2022-08-28T07:05:05.271Z,37.47
2022-08-28T07:07:32.528Z,38.43
2022-08-28T07:09:59.201Z,40.35
2022-08-28T07:12:25.720Z,36.69
2022-08-28T07:14:52.377Z,36.78
2022-08-28T07:17:18.830Z,34.75
2022-08-28T07:19:45.273Z,36.62
2022-08-28T07:22:12.045Z,33.65
2022-08-28T07:24:38.540Z,36.81
2022-08-28T07:27:05.471Z,36.30
2022-08-28T07:29:31.920Z,34.52
2022-08-28T07:31:59.033Z,32.73
2022-08-28T07:34:27.144Z,34.05
2022-08-28T07:36:54.015Z,33.60
2022-08-28T07:39:20.504Z,35.19
2022-08-28T07:41:47.296Z,35.36
2022-08-28T07:44:33.413Z,34.56
2022-08-28T07:47:03.998Z,33.42
2022-08-28T07:49:31.494Z,32.22
2022-08-28T07:51:58.026Z,32.73
2022-08-28T07:54:24.640Z,32.64
2022-08-28T07:56:52.702Z,33.29
2022-08-28T07:59:20.294Z,32.07
2022-08-28T08:01:50.683Z,32.11
2022-08-28T08:04:20.085Z,32.17
2022-08-28T08:06:47.031Z,31.21
2022-08-28T08:09:15.264Z,31.90
2022-08-28T08:11:42.503Z,30.53
2022-08-28T08:14:09.183Z,31.25
2022-08-28T08:16:38.598Z,33.36
2022-08-28T08:19:05.586Z,35.87
2022-08-28T08:21:32.770Z,41.67
2022-08-28T08:23:59.237Z,45.61
2022-08-28T08:26:28.249Z,62.11
2022-08-28T08:28:55.749Z,65.77
2022-08-28T08:31:26.781Z,55.02
2022-08-28T08:33:55.706Z,55.46
2022-08-28T08:36:23.437Z,60.96
2022-08-28T08:38:50.682Z,53.74
2022-08-28T08:41:29.130Z,55.91
2022-08-28T08:43:58.818Z,59.17
2022-08-28T08:46:37.597Z,61.11
2022-08-28T08:49:05.931Z,55.19
2022-08-28T08:51:39.733Z,54.81
2022-08-28T08:54:08.760Z,51.19
2022-08-28T08:56:36.001Z,53.33
2022-08-28T08:59:03.434Z,51.10
2022-08-28T09:01:36.917Z,56.23
2022-08-28T09:04:18.783Z,49.71
2022-08-28T09:06:54.548Z,44.72
2022-08-28T09:09:45.001Z,55.45
2022-08-28T09:12:14.995Z,49.81
2022-08-28T09:15:09.004Z,55.89
2022-08-28T09:17:42.509Z,50.36
2022-08-28T09:20:10.793Z,48.16
2022-08-28T09:22:38.094Z,49.42
2022-08-28T09:25:06.059Z,46.43
2022-08-28T09:27:39.390Z,45.21
2022-08-28T09:30:08.381Z,45.33
2022-08-28T09:32:38.735Z,41.56
2022-08-28T09:35:13.150Z,43.88
2022-08-28T09:37:40.585Z,44.08
2022-08-28T09:40:16.449Z,45.88
2022-08-28T09:43:16.912Z,43.89
2022-08-28T09:45:43.424Z,49.84
2022-08-28T09:48:23.759Z,41.07
2022-08-28T09:51:03.352Z,41.24
2022-08-28T09:53:30.921Z,40.87
2022-08-28T09:55:57.421Z,39.40
2022-08-28T09:58:28.325Z,42.01
2022-08-28T10:01:04.275Z,44.17
2022-08-28T10:03:37.129Z,41.64
2022-08-28T10:06:13.776Z,40.88
2022-08-28T10:08:46.153Z,46.26
2022-08-28T10:11:24.625Z,39.05
2022-08-28T10:14:00.872Z,39.79
2022-08-28T10:16:47.109Z,40.38
2022-08-28T10:19:36.221Z,40.94
2022-08-28T10:22:27.623Z,38.63
2022-08-28T10:25:03.350Z,38.58
2022-08-28T10:27:48.758Z,39.58
2022-08-28T10:30:17.396Z,36.71
2022-08-28T10:32:49.782Z,36.08
2022-08-28T10:35:20.687Z,36.55
2022-08-28T10:37:47.609Z,39.04
2022-08-28T10:40:36.002Z,36.32
2022-08-28T10:43:06.059Z,36.17
2022-08-28T10:45:34.840Z,37.72
2022-08-28T10:48:06.750Z,37.39
2022-08-28T10:50:39.005Z,39.49
2022-08-28T10:53:11.605Z,39.32
2022-08-28T10:55:43.787Z,37.10
2022-08-28T10:58:25.133Z,37.19
2022-08-28T11:00:56.971Z,39.21
2022-08-28T11:03:34.551Z,38.02
2022-08-28T11:06:05.771Z,37.05
2022-08-28T11:08:33.625Z,38.91
2022-08-28T11:11:01.987Z,39.40
2022-08-28T11:13:40.676Z,43.53
2022-08-28T11:16:18.752Z,39.82
2022-08-28T11:18:47.995Z,41.24
2022-08-28T11:21:17.617Z,38.67
2022-08-28T11:23:47.091Z,41.51
2022-08-28T11:26:15.021Z,38.07
2022-08-28T11:28:47.320Z,38.18
2022-08-28T11:31:19.164Z,39.38
2022-08-28T11:33:58.977Z,39.71
2022-08-28T11:36:29.925Z,39.20
2022-08-28T11:38:57.067Z,37.04
2022-08-28T11:41:27.400Z,37.09
2022-08-28T11:44:17.896Z,37.46
2022-08-28T11:46:52.287Z,37.66
2022-08-28T11:49:26.235Z,37.40
2022-08-28T11:52:18.567Z,36.58
2022-08-28T11:55:03.883Z,35.03
2022-08-28T11:57:49.619Z,38.04
2022-08-28T12:00:28.934Z,36.52
2022-08-28T12:03:13.261Z,34.18
2022-08-28T12:05:41.857Z,35.11
2022-08-28T12:08:11.594Z,34.08
2022-08-28T12:10:38.010Z,37.33
2022-08-28T12:13:09.020Z,36.73
2022-08-28T12:15:35.559Z,36.16
2022-08-28T12:18:21.973Z,34.95
2022-08-28T12:20:51.456Z,35.31
2022-08-28T12:23:23.979Z,34.61
2022-08-28T12:25:58.041Z,33.17
2022-08-28T12:28:27.791Z,35.92
2022-08-28T12:31:13.066Z,36.51
2022-08-28T12:33:50.629Z,36.33
2022-08-28T12:36:18.575Z,37.10
2022-08-28T12:38:49.133Z,35.01
2022-08-28T12:41:17.177Z,36.83
2022-08-28T12:43:46.817Z,37.78
2022-08-28T12:46:35.198Z,35.93
2022-08-28T12:49:03.243Z,36.14
2022-08-28T12:51:34.205Z,35.25
2022-08-28T12:54:02.740Z,36.08
2022-08-28T12:56:34.022Z,37.06
2022-08-28T12:59:19.297Z,36.37
2022-08-28T13:01:46.238Z,34.23
2022-08-28T13:04:40.893Z,38.08
2022-08-28T13:07:30.653Z,37.21
2022-08-28T13:09:59.621Z,37.75
2022-08-28T13:12:55.133Z,38.54
2022-08-28T13:15:39.460Z,37.42
2022-08-28T13:18:05.960Z,38.68
2022-08-28T13:20:33.997Z,34.49
2022-08-28T13:23:01.628Z,34.29
2022-08-28T13:25:31.061Z,34.47
2022-08-28T13:28:03.022Z,36.16
2022-08-28T13:30:31.039Z,35.40
2022-08-28T13:33:01.943Z,35.62
2022-08-28T13:35:33.225Z,35.63
2022-08-28T13:38:01.373Z,34.02
2022-08-28T13:40:56.425Z,35.30
2022-08-28T13:43:18.239Z,34.66
2022-08-28T13:45:45.797Z,36.18
2022-08-28T13:48:13.297Z,37.61
2022-08-28T13:50:42.000Z,37.15
2022-08-28T13:53:11.444Z,35.77
2022-08-28T13:55:39.184Z,37.14
2022-08-28T13:58:05.675Z,37.15
2022-08-28T14:00:34.488Z,37.18
2022-08-28T14:03:19.416Z,37.38
2022-08-28T14:05:45.867Z,38.82
2022-08-28T14:08:13.190Z,37.07
2022-08-28T14:10:40.005Z,37.71
2022-08-28T14:13:06.751Z,37.76
2022-08-28T14:15:33.387Z,38.96
2022-08-28T14:17:59.851Z,38.13
2022-08-28T14:20:26.636Z,39.05
2022-08-28T14:22:53.096Z,38.93
2022-08-28T14:25:19.548Z,39.16
2022-08-28T14:27:46.008Z,39.61
2022-08-28T14:30:12.801Z,40.75
2022-08-28T14:32:39.496Z,42.54
2022-08-28T14:35:06.237Z,42.20
2022-08-28T14:37:33.258Z,42.27
2022-08-28T14:39:59.770Z,44.36
2022-08-28T14:42:27.046Z,42.67
2022-08-28T14:44:53.672Z,44.34
2022-08-28T14:47:20.529Z,42.64
2022-08-28T14:49:47.027Z,42.92
2022-08-28T14:52:13.675Z,42.87
2022-08-28T14:54:40.579Z,43.35
2022-08-28T14:57:07.027Z,42.05
2022-08-28T14:59:34.054Z,42.01
2022-08-28T15:02:01.801Z,42.81
2022-08-28T15:04:35.325Z,43.69
2022-08-28T15:07:02.972Z,46.05
2022-08-28T15:09:29.476Z,43.46
2022-08-28T15:11:56.227Z,44.84
2022-08-28T15:14:22.932Z,45.64
2022-08-28T15:16:49.632Z,45.06
2022-08-28T15:19:19.136Z,44.46
2022-08-28T15:21:48.254Z,44.10
2022-08-28T15:24:15.813Z,44.65
2022-08-28T15:26:42.444Z,44.91
2022-08-28T15:29:10.789Z,47.41
2022-08-28T15:31:39.138Z,44.93
2022-08-28T15:34:06.650Z,44.85
2022-08-28T15:36:40.441Z,46.47
2022-08-28T15:39:26.187Z,48.17
2022-08-28T15:41:52.917Z,47.92
2022-08-28T15:44:19.488Z,47.52
2022-08-28T15:47:01.073Z,47.56
2022-08-28T15:49:28.432Z,46.92
2022-08-28T15:51:56.071Z,47.49
2022-08-28T15:54:22.992Z,47.44
2022-08-28T15:56:50.800Z,48.91
2022-08-28T15:59:20.848Z,48.97
2022-08-28T16:01:47.392Z,49.64
2022-08-28T16:04:14.433Z,50.19
2022-08-28T16:06:41.886Z,51.03
2022-08-28T16:09:09.095Z,50.88
2022-08-28T16:11:35.687Z,51.21
2022-08-28T16:14:05.244Z,51.83
2022-08-28T16:16:32.531Z,52.15
2022-08-28T16:18:59.235Z,53.11
2022-08-28T16:21:27.488Z,53.04
2022-08-28T16:23:54.837Z,53.86
2022-08-28T16:26:21.449Z,53.98
2022-08-28T16:28:47.988Z,54.49
2022-08-28T16:31:20.490Z,55.13
2022-08-28T16:33:47.879Z,55.12
2022-08-28T16:36:15.136Z,55.15
2022-08-28T16:38:43.034Z,55.45
2022-08-28T16:41:20.402Z,55.73
2022-08-28T16:43:47.278Z,55.19
2022-08-28T16:46:16.747Z,55.57
2022-08-28T16:48:44.232Z,56.61
2022-08-28T16:51:11.426Z,56.94
2022-08-28T16:53:40.630Z,56.95
2022-08-28T16:56:08.968Z,57.68
2022-08-28T16:58:36.575Z,56.81
2022-08-28T17:01:03.702Z,57.56
2022-08-28T17:03:32.564Z,57.85
2022-08-28T17:06:03.177Z,58.32
2022-08-28T17:08:29.618Z,58.21
2022-08-28T17:10:56.092Z,57.79
2022-08-28T17:13:22.540Z,57.49
2022-08-28T17:15:49.051Z,57.98
2022-08-28T17:18:15.541Z,58.79
2022-08-28T17:21:00.638Z,58.39
2022-08-28T17:23:27.093Z,58.67
2022-08-28T17:25:53.537Z,58.90
2022-08-28T17:28:20.052Z,59.49
2022-08-28T17:30:46.632Z,58.83
2022-08-28T17:33:13.439Z,58.99
2022-08-28T17:35:41.779Z,58.99
2022-08-28T17:38:08.778Z,59.41
2022-08-28T17:40:35.293Z,59.67
2022-08-28T17:43:02.925Z,59.74
2022-08-28T17:45:29.539Z,59.58
2022-08-28T17:47:56.018Z,60.06
2022-08-28T17:50:23.151Z,61.10
2022-08-28T17:52:50.074Z,59.50
2022-08-28T17:55:18.215Z,60.01
2022-08-28T17:57:44.891Z,60.19
2022-08-28T18:00:16.232Z,60.64
2022-08-28T18:02:43.515Z,59.82
2022-08-28T18:05:11.084Z,60.34
2022-08-28T18:07:37.696Z,60.43
2022-08-28T18:10:05.000Z,60.13
2022-08-28T18:12:31.467Z,60.54
2022-08-28T18:14:58.070Z,60.19
2022-08-28T18:17:25.447Z,60.84
2022-08-28T18:19:51.921Z,61.02
2022-08-28T18:22:18.357Z,61.35
2022-08-28T18:24:44.905Z,60.49
2022-08-28T18:27:11.387Z,60.67
2022-08-28T18:29:39.512Z,59.82
2022-08-28T18:32:06.249Z,61.19
2022-08-28T18:34:32.946Z,60.04
2022-08-28T18:36:59.467Z,60.63
2022-08-28T18:39:29.448Z,60.20
2022-08-28T18:41:56.187Z,59.86
2022-08-28T18:44:24.349Z,60.07
2022-08-28T18:46:51.341Z,59.68
2022-08-28T18:49:17.789Z,60.55
2022-08-28T18:51:44.827Z,59.76
2022-08-28T18:54:13.427Z,60.35
2022-08-28T18:56:40.065Z,60.12
2022-08-28T18:59:07.999Z,60.83
2022-08-28T19:01:34.784Z,60.61
2022-08-28T19:04:01.476Z,61.48
2022-08-28T19:06:27.927Z,60.51
2022-08-28T19:08:54.392Z,60.09
2022-08-28T19:11:20.826Z,59.90
2022-08-28T19:13:47.724Z,60.54
2022-08-28T19:16:17.987Z,61.44
2022-08-28T19:18:45.737Z,60.13
2022-08-28T19:21:16.539Z,60.68
2022-08-28T19:23:43.309Z,59.55
2022-08-28T19:26:23.101Z,60.37
2022-08-28T19:28:50.616Z,61.63
2022-08-28T19:31:17.786Z,61.21
2022-08-28T19:33:46.467Z,60.88
2022-08-28T19:36:13.555Z,61.24
2022-08-28T19:38:40.575Z,61.99
2022-08-28T19:41:08.199Z,62.70
2022-08-28T19:43:43.263Z,62.22
2022-08-28T19:46:18.242Z,62.45
2022-08-28T19:48:47.789Z,62.05
2022-08-28T19:51:17.445Z,62.69
2022-08-28T19:53:44.292Z,62.44
2022-08-28T19:56:10.825Z,62.26
2022-08-28T19:58:37.330Z,63.69
2022-08-28T20:01:04.176Z,63.65
2022-08-28T20:03:30.721Z,64.73
2022-08-28T20:05:57.238Z,64.17
2022-08-28T20:08:23.926Z,64.78
2022-08-28T20:10:51.149Z,64.71
2022-08-28T20:13:17.918Z,64.48
2022-08-28T20:15:45.692Z,65.40
2022-08-28T20:18:13.122Z,66.18
2022-08-28T20:20:39.995Z,66.85
2022-08-28T20:23:07.309Z,65.63
2022-08-28T20:25:34.931Z,67.27
2022-08-28T20:28:02.084Z,66.33
2022-08-28T20:30:28.575Z,66.40
2022-08-28T20:32:55.046Z,66.90
2022-08-28T20:35:22.134Z,67.73
2022-08-28T20:37:51.089Z,67.34
2022-08-28T20:40:18.883Z,67.51
2022-08-28T20:42:45.967Z,67.61
2022-08-28T20:45:13.390Z,67.58
2022-08-28T20:47:39.863Z,68.14
2022-08-28T20:50:06.711Z,69.14
2022-08-28T20:52:33.228Z,69.00
2022-08-28T20:54:59.761Z,68.90
2022-08-28T20:57:26.533Z,69.58
2022-08-28T20:59:54.138Z,71.02
2022-08-28T21:02:22.551Z,71.20
2022-08-28T21:04:49.297Z,72.69
2022-08-28T21:07:17.174Z,72.71
2022-08-28T21:10:04.607Z,72.60
2022-08-28T21:12:30.878Z,73.24
2022-08-28T21:14:57.640Z,74.74
2022-08-28T21:17:29.040Z,75.22
2022-08-28T21:19:56.760Z,76.51
2022-08-28T21:22:23.316Z,76.08
2022-08-28T21:24:49.946Z,76.35
2022-08-28T21:27:16.483Z,76.89
2022-08-28T21:29:46.035Z,77.22
2022-08-28T21:32:12.801Z,76.84
2022-08-28T21:34:39.326Z,77.14
2022-08-28T21:37:06.478Z,77.43
2022-08-28T21:39:33.546Z,77.87
2022-08-28T21:42:00.174Z,79.04
2022-08-28T21:44:26.657Z,79.18
2022-08-28T21:46:53.278Z,79.85
2022-08-28T21:49:19.841Z,80.47
2022-08-28T21:51:46.313Z,81.39
2022-08-28T21:54:13.274Z,82.96
2022-08-28T21:56:40.243Z,82.68
2022-08-28T21:59:06.865Z,83.60
2022-08-28T22:01:33.408Z,85.36
2022-08-28T22:04:00.025Z,85.87
2022-08-28T22:06:26.518Z,86.55
2022-08-28T22:08:54.021Z,86.99
2022-08-28T22:11:24.547Z,87.51
2022-08-28T22:13:52.204Z,89.07
2022-08-28T22:16:18.874Z,89.09
2022-08-28T22:18:45.430Z,89.79
2022-08-28T22:21:34.650Z,89.24
2022-08-28T22:24:01.652Z,89.37
2022-08-28T22:26:28.155Z,88.91
2022-08-28T22:28:55.920Z,89.28
2022-08-28T22:31:23.029Z,90.64
2022-08-28T22:33:50.325Z,91.00
2022-08-28T22:36:17.450Z,90.91
2022-08-28T22:38:50.480Z,90.63
2022-08-28T22:41:20.296Z,90.39
2022-08-28T22:43:48.217Z,90.50
2022-08-28T22:46:17.020Z,89.94
2022-08-28T22:48:43.597Z,90.59
2022-08-28T22:51:14.507Z,89.56
2022-08-28T22:53:43.304Z,90.76
2022-08-28T22:56:10.440Z,90.36
2022-08-28T22:58:37.575Z,91.58
2022-08-28T23:01:09.089Z,91.28
2022-08-28T23:03:35.743Z,92.18
2022-08-28T23:06:02.347Z,91.91
2022-08-28T23:08:33.754Z,91.91
2022-08-28T23:11:00.922Z,91.85
2022-08-28T23:13:27.750Z,91.85
2022-08-28T23:15:54.217Z,91.91
2022-08-28T23:18:21.217Z,92.57
2022-08-28T23:20:47.955Z,92.14
2022-08-28T23:23:17.233Z,93.49
2022-08-28T23:25:43.848Z,95.23
2022-08-28T23:28:10.329Z,95.03
2022-08-28T23:30:38.938Z,96.71
2022-08-28T23:33:08.483Z,95.97
2022-08-28T23:35:35.338Z,96.57
2022-08-28T23:38:01.806Z,97.57
2022-08-28T23:40:30.423Z,98.40
2022-08-28T23:42:58.121Z,98.39
2022-08-28T23:45:25.711Z,98.58
2022-08-28T23:47:53.892Z,98.76
2022-08-28T23:50:21.633Z,98.81
2022-08-28T23:52:48.692Z,98.88
2022-08-28T23:55:16.413Z,99.00
2022-08-28T23:57:44.030Z,100.00
